createdAt,value
2019-02-19T00:01:41.347Z,15.73
2019-02-19T00:04:12.543Z,15.73
2019-02-19T00:06:44.703Z,16.30
2019-02-19T00:09:15.829Z,23.67
2019-02-19T00:11:47.024Z,15.90
2019-02-19T00:14:18.459Z,18.97
2019-02-19T00:16:49.755Z,19.80
2019-02-19T00:19:21.077Z,19.37
2019-02-19T00:21:52.750Z,13.33
2019-02-19T00:24:24.321Z,18.57
2019-02-19T00:26:55.046Z,18.20
2019-02-19T00:29:26.282Z,19.73
2019-02-19T00:31:59.886Z,15.57
2019-02-19T00:35:00.820Z,15.60
2019-02-19T00:37:33.579Z,21.47
2019-02-19T00:40:04.936Z,13.97
2019-02-19T00:42:35.991Z,20.40
2019-02-19T00:45:07.235Z,11.63
2019-02-19T00:47:38.339Z,18.50
2019-02-19T00:50:09.528Z,13.50
2019-02-19T00:52:40.671Z,11.73
2019-02-19T00:55:11.897Z,17.23
2019-02-19T00:57:43.163Z,15.60
2019-02-19T01:00:16.565Z,22.03
2019-02-19T01:02:48.349Z,20.93
2019-02-19T01:05:19.420Z,12.97
2019-02-19T01:07:50.754Z,11.10
2019-02-19T01:10:21.774Z,16.27
2019-02-19T01:12:53.267Z,10.43
2019-02-19T01:15:25.684Z,11.60
2019-02-19T01:21:11.245Z,13.08
2019-02-19T01:23:42.809Z,14.13
2019-02-19T01:26:14.008Z,13.03
2019-02-19T01:28:45.016Z,14.00
2019-02-19T01:31:16.278Z,13.03
2019-02-19T01:33:48.815Z,14.43
2019-02-19T01:36:19.866Z,18.20
2019-02-19T01:38:51.052Z,17.20
2019-02-19T01:41:22.241Z,18.33
2019-02-19T01:43:53.104Z,18.63
2019-02-19T01:46:24.125Z,13.50
2019-02-19T01:48:54.836Z,22.10
2019-02-19T01:51:27.365Z,14.83
2019-02-19T01:53:59.784Z,25.43
2019-02-19T01:56:32.529Z,15.80
2019-02-19T01:59:03.990Z,17.53
2019-02-19T02:01:34.952Z,21.77
2019-02-19T02:04:06.029Z,16.83
2019-02-19T02:06:37.060Z,17.23
2019-02-19T02:09:08.296Z,17.77
2019-02-19T02:11:39.443Z,27.33
2019-02-19T02:14:10.581Z,21.10
2019-02-19T02:16:41.774Z,22.17
2019-02-19T02:19:12.674Z,17.50
2019-02-19T02:21:43.648Z,19.20
2019-02-19T02:24:19.187Z,15.80
2019-02-19T02:26:50.264Z,24.53
2019-02-19T02:29:21.443Z,16.90
2019-02-19T02:31:52.880Z,17.50
2019-02-19T02:34:23.914Z,19.17
2019-02-19T02:36:55.053Z,18.93
2019-02-19T02:39:26.206Z,21.13
2019-02-19T02:45:27.803Z,26.67
2019-02-19T02:47:58.519Z,20.20
2019-02-19T02:50:29.581Z,14.30
2019-02-19T02:53:00.906Z,18.00
2019-02-19T02:55:31.852Z,17.20
2019-02-19T02:58:02.971Z,17.90
2019-02-19T03:00:34.034Z,23.93
2019-02-19T03:03:05.126Z,20.80
2019-02-19T03:05:38.151Z,25.93
2019-02-19T03:08:09.245Z,16.43
2019-02-19T03:10:40.359Z,21.47
2019-02-19T03:13:11.395Z,19.43
2019-02-19T03:15:42.416Z,18.83
2019-02-19T03:18:14.580Z,19.73
2019-02-19T03:20:45.591Z,26.17
2019-02-19T03:23:16.723Z,18.63
2019-02-19T03:25:47.892Z,25.23
2019-02-19T03:28:18.932Z,22.63
2019-02-19T03:30:50.032Z,25.43
2019-02-19T03:33:21.127Z,20.27
2019-02-19T03:35:52.198Z,23.67
2019-02-19T03:38:23.312Z,17.00
2019-02-19T03:40:54.219Z,19.13
2019-02-19T03:43:25.471Z,25.67
2019-02-19T03:45:56.611Z,20.10
2019-02-19T03:48:27.734Z,22.33
2019-02-19T03:50:58.543Z,29.13
2019-02-19T03:53:29.564Z,25.10
2019-02-19T03:56:00.272Z,19.63
2019-02-19T03:58:31.717Z,14.57
2019-02-19T04:01:02.436Z,21.37
2019-02-19T04:03:33.997Z,15.47
2019-02-19T04:06:05.137Z,25.37
2019-02-19T04:08:36.129Z,17.90
2019-02-19T04:11:07.374Z,15.60
2019-02-19T04:13:38.723Z,20.80
2019-02-19T04:16:09.811Z,15.40
2019-02-19T04:18:40.819Z,18.23
2019-02-19T04:21:11.911Z,19.40
2019-02-19T04:23:43.294Z,21.07
2019-02-19T04:26:14.311Z,15.60
2019-02-19T04:28:45.372Z,14.63
2019-02-19T04:31:16.307Z,14.43
2019-02-19T04:33:47.434Z,19.30
2019-02-19T04:36:18.516Z,14.37
2019-02-19T04:38:49.503Z,15.20
2019-02-19T04:41:20.525Z,15.97
2019-02-19T04:43:51.661Z,13.83
2019-02-19T04:46:31.206Z,22.73
2019-02-19T04:48:55.017Z,15.00
2019-02-19T04:51:33.169Z,13.90
2019-02-19T04:54:03.783Z,17.70
2019-02-19T04:56:35.106Z,21.50
2019-02-19T04:59:14.480Z,17.47
2019-02-19T05:01:45.755Z,22.50
2019-02-19T05:04:16.816Z,14.07
2019-02-19T05:06:48.084Z,18.37
2019-02-19T05:09:19.368Z,15.10
2019-02-19T05:11:50.295Z,13.17
2019-02-19T05:14:21.391Z,17.73
2019-02-19T05:16:52.611Z,18.77
2019-02-19T05:19:23.642Z,15.60
2019-02-19T05:21:54.652Z,21.23
2019-02-19T05:24:26.071Z,18.90
2019-02-19T05:30:33.460Z,16.70
2019-02-19T05:33:04.524Z,18.87
2019-02-19T05:35:35.767Z,12.30
2019-02-19T05:38:06.828Z,17.73
2019-02-19T05:40:38.014Z,13.87
2019-02-19T05:43:09.017Z,20.40
2019-02-19T05:45:40.183Z,21.80
2019-02-19T05:48:11.271Z,17.10
2019-02-19T05:50:42.375Z,16.67
2019-02-19T05:53:13.420Z,21.23
2019-02-19T05:55:44.628Z,25.57
2019-02-19T05:58:15.658Z,16.80
2019-02-19T06:00:46.657Z,14.07
2019-02-19T06:03:17.653Z,15.20
2019-02-19T06:05:50.362Z,18.97
2019-02-19T06:08:21.507Z,23.93
2019-02-19T06:10:53.553Z,19.07
2019-02-19T06:13:24.590Z,20.13
2019-02-19T06:16:01.276Z,21.50
2019-02-19T06:18:33.333Z,22.10
2019-02-19T06:21:04.354Z,24.63
2019-02-19T06:23:35.423Z,22.27
2019-02-19T06:26:06.613Z,23.80
2019-02-19T06:28:37.775Z,20.93
2019-02-19T06:31:09.090Z,19.13
2019-02-19T06:33:40.402Z,16.80
2019-02-19T06:36:11.550Z,19.93
2019-02-19T06:38:51.588Z,22.73
2019-02-19T06:41:22.668Z,23.27
2019-02-19T06:43:54.191Z,27.03
2019-02-19T06:46:26.070Z,29.27
2019-02-19T06:48:56.808Z,22.70
2019-02-19T06:51:29.240Z,20.10
2019-02-19T06:54:01.097Z,21.63
2019-02-19T06:56:32.342Z,24.70
2019-02-19T06:59:03.447Z,27.10
2019-02-19T07:01:59.335Z,21.10
2019-02-19T07:04:40.143Z,24.50
2019-02-19T07:07:11.407Z,26.30
2019-02-19T07:09:42.674Z,24.13
2019-02-19T07:12:13.597Z,24.17
2019-02-19T07:14:44.684Z,23.00
2019-02-19T07:17:16.077Z,23.43
2019-02-19T07:19:47.245Z,24.07
2019-02-19T07:22:18.266Z,25.17
2019-02-19T07:24:49.451Z,24.43
2019-02-19T07:27:21.766Z,22.97
2019-02-19T07:29:53.162Z,18.93
2019-02-19T07:32:24.371Z,25.00
2019-02-19T07:34:55.248Z,19.60
2019-02-19T07:37:26.681Z,23.90
2019-02-19T07:39:57.305Z,22.07
2019-02-19T07:42:28.236Z,23.80
2019-02-19T07:44:58.986Z,20.73
2019-02-19T07:47:30.120Z,22.87
2019-02-19T07:50:01.285Z,20.60
2019-02-19T07:52:32.734Z,23.23
2019-02-19T07:55:03.874Z,22.17
2019-02-19T07:57:35.001Z,19.00
2019-02-19T08:00:06.476Z,21.37
2019-02-19T08:02:37.483Z,25.10
2019-02-19T08:05:09.054Z,21.20
2019-02-19T08:07:40.250Z,15.43
2019-02-19T08:10:11.120Z,27.67
2019-02-19T08:12:42.179Z,18.13
2019-02-19T08:15:13.358Z,23.40
2019-02-19T08:17:44.551Z,29.00
2019-02-19T08:20:16.396Z,17.70
2019-02-19T08:22:48.206Z,26.77
2019-02-19T08:25:19.274Z,26.10
2019-02-19T08:27:51.314Z,34.23
2019-02-19T08:30:58.255Z,21.10
2019-02-19T08:33:29.516Z,31.60
2019-02-19T08:36:00.699Z,27.00
2019-02-19T08:38:31.652Z,24.53
2019-02-19T08:41:02.362Z,37.03
2019-02-19T08:43:37.303Z,20.00
2019-02-19T08:46:08.353Z,25.30
2019-02-19T08:48:39.572Z,25.37
2019-02-19T08:51:10.673Z,28.03
2019-02-19T08:53:41.775Z,23.93
2019-02-19T08:56:12.829Z,29.03
2019-02-19T08:58:44.028Z,23.33
2019-02-19T09:01:15.142Z,26.23
2019-02-19T09:03:46.286Z,30.43
2019-02-19T09:06:17.270Z,19.60
2019-02-19T09:08:48.457Z,28.43
2019-02-19T09:11:19.666Z,23.60
2019-02-19T09:13:50.860Z,17.30
2019-02-19T09:16:21.741Z,18.33
2019-02-19T09:18:52.934Z,13.97
2019-02-19T09:21:24.023Z,23.07
2019-02-19T09:23:54.901Z,21.23
2019-02-19T09:26:25.963Z,28.03
2019-02-19T09:28:56.742Z,18.03
2019-02-19T09:31:28.800Z,17.90
2019-02-19T09:33:59.911Z,15.77
2019-02-19T09:36:30.875Z,17.80
2019-02-19T09:39:01.739Z,16.83
2019-02-19T09:41:34.045Z,18.20
2019-02-19T09:44:04.990Z,13.93
2019-02-19T09:46:37.289Z,17.33
2019-02-19T09:49:08.634Z,20.80
2019-02-19T09:51:40.034Z,17.63
2019-02-19T09:54:11.181Z,20.90
2019-02-19T09:56:42.344Z,25.87
2019-02-19T09:59:13.487Z,16.23
2019-02-19T10:01:45.099Z,16.73
2019-02-19T10:04:16.240Z,16.10
2019-02-19T10:06:55.174Z,24.77
2019-02-19T10:09:26.272Z,27.30
2019-02-19T10:11:57.340Z,20.23
2019-02-19T10:14:28.826Z,21.00
2019-02-19T10:16:59.788Z,23.10
2019-02-19T10:19:30.837Z,25.83
2019-02-19T10:22:02.576Z,25.73
2019-02-19T10:24:47.200Z,15.67
2019-02-19T10:27:26.251Z,33.37
2019-02-19T10:30:01.222Z,28.63
2019-02-19T10:32:32.645Z,27.53
2019-02-19T10:35:03.302Z,20.70
2019-02-19T10:37:34.488Z,30.80
2019-02-19T10:40:06.609Z,26.80
2019-02-19T10:42:37.655Z,23.10
2019-02-19T10:45:10.512Z,21.53
2019-02-19T10:47:41.778Z,18.90
2019-02-19T10:50:12.803Z,19.60
2019-02-19T10:52:43.910Z,28.53
2019-02-19T10:55:15.098Z,22.50
2019-02-19T10:57:46.292Z,26.17
2019-02-19T11:00:18.197Z,21.90
2019-02-19T11:06:17.064Z,21.87
2019-02-19T11:08:48.285Z,23.27
2019-02-19T11:11:19.690Z,29.67
2019-02-19T11:13:50.749Z,23.03
2019-02-19T11:16:21.872Z,27.50
2019-02-19T11:18:53.140Z,15.17
2019-02-19T11:21:24.190Z,13.90
2019-02-19T11:24:18.974Z,13.70
2019-02-19T11:26:51.340Z,13.73
2019-02-19T11:29:22.380Z,12.70
2019-02-19T11:31:53.393Z,12.40
2019-02-19T11:34:24.663Z,15.30
2019-02-19T11:36:55.607Z,13.03
2019-02-19T11:39:26.560Z,12.43
2019-02-19T11:41:57.314Z,13.23
2019-02-19T11:44:28.551Z,14.03
2019-02-19T11:46:59.229Z,10.03
2019-02-19T11:49:30.423Z,8.50
2019-02-19T11:52:01.571Z,9.88
2019-02-19T11:54:32.683Z,8.80
2019-02-19T11:57:03.366Z,15.37
2019-02-19T11:59:34.568Z,10.73
2019-02-19T12:02:09.574Z,8.03
2019-02-19T12:05:04.295Z,7.90
2019-02-19T12:07:35.431Z,9.90
2019-02-19T12:10:06.476Z,6.03
2019-02-19T12:12:37.528Z,10.07
2019-02-19T12:15:08.927Z,10.13
2019-02-19T12:17:39.834Z,16.90
2019-02-19T12:20:11.219Z,13.43
2019-02-19T12:23:02.504Z,10.73
2019-02-19T12:25:33.477Z,8.50
2019-02-19T12:28:04.754Z,12.90
2019-02-19T12:30:36.349Z,9.30
2019-02-19T12:33:07.484Z,10.10
2019-02-19T12:35:38.594Z,10.63
2019-02-19T12:38:09.813Z,8.97
2019-02-19T12:40:41.031Z,15.87
2019-02-19T12:43:12.025Z,8.00
2019-02-19T12:45:43.346Z,8.83
2019-02-19T12:48:14.645Z,10.27
2019-02-19T12:50:46.812Z,9.00
2019-02-19T12:53:24.781Z,9.10
2019-02-19T12:55:56.437Z,9.57
2019-02-19T12:58:27.604Z,8.70
2019-02-19T13:00:58.927Z,8.50
2019-02-19T13:03:30.184Z,9.67
2019-02-19T13:06:01.093Z,17.27
2019-02-19T13:08:32.159Z,26.93
2019-02-19T13:11:02.846Z,16.67
2019-02-19T13:13:34.025Z,20.03
2019-02-19T13:16:05.236Z,10.50
2019-02-19T13:18:36.111Z,14.33
2019-02-19T13:21:07.179Z,14.43
2019-02-19T13:23:39.231Z,11.10
2019-02-19T13:29:37.689Z,14.73
2019-02-19T13:32:08.747Z,8.67
2019-02-19T13:34:47.165Z,9.30
2019-02-19T13:37:18.664Z,15.73
2019-02-19T13:39:49.774Z,7.77
2019-02-19T13:42:21.117Z,8.20
2019-02-19T13:44:52.182Z,17.40
2019-02-19T13:47:27.148Z,6.80
2019-02-19T13:49:58.436Z,6.33
2019-02-19T13:52:40.744Z,6.60
2019-02-19T13:55:24.363Z,8.70
2019-02-19T13:57:57.454Z,10.63
2019-02-19T14:00:29.377Z,9.53
2019-02-19T14:03:00.046Z,10.90
2019-02-19T14:05:31.364Z,8.93
2019-02-19T14:08:02.075Z,13.80
2019-02-19T14:10:33.553Z,16.73
2019-02-19T14:13:04.501Z,12.83
2019-02-19T14:15:54.600Z,10.80
2019-02-19T14:18:47.837Z,12.33
2019-02-19T14:21:40.923Z,12.20
2019-02-19T14:24:43.049Z,8.90
2019-02-19T14:27:32.086Z,11.30
2019-02-19T14:30:28.346Z,8.13
2019-02-19T14:33:16.411Z,8.17
2019-02-19T14:35:59.198Z,14.60
2019-02-19T14:38:50.441Z,9.20
2019-02-19T14:41:41.655Z,7.27
2019-02-19T14:44:32.207Z,10.23
2019-02-19T14:47:26.583Z,9.03
2019-02-19T14:50:19.333Z,10.73
2019-02-19T14:53:04.550Z,14.27
2019-02-19T14:56:14.287Z,9.70
2019-02-19T14:59:03.937Z,19.60
2019-02-19T15:02:02.292Z,12.43
2019-02-19T15:04:51.418Z,12.90
2019-02-19T15:07:34.643Z,13.40
2019-02-19T15:10:23.538Z,8.40
2019-02-19T15:13:14.424Z,9.40
2019-02-19T15:16:10.223Z,14.03
2019-02-19T15:19:15.859Z,16.70
2019-02-19T15:22:07.242Z,35.07
2019-02-19T15:24:46.181Z,11.50
2019-02-19T15:27:48.569Z,8.33
2019-02-19T15:30:44.963Z,10.90
2019-02-19T15:33:40.910Z,9.40
2019-02-19T15:36:30.856Z,18.57
2019-02-19T15:39:12.436Z,11.77
2019-02-19T15:41:57.250Z,18.43
2019-02-19T15:44:56.046Z,12.53
2019-02-19T15:47:48.919Z,9.60
2019-02-19T15:50:37.495Z,12.80
2019-02-19T15:53:31.172Z,12.30
2019-02-19T15:56:17.410Z,21.70
2019-02-19T15:59:01.866Z,11.50
2019-02-19T16:01:59.165Z,11.53
2019-02-19T16:04:58.520Z,12.23
2019-02-19T16:07:41.919Z,10.23
2019-02-19T16:10:36.177Z,8.40
2019-02-19T16:13:24.032Z,9.40
2019-02-19T16:16:29.803Z,10.30
2019-02-19T16:19:18.355Z,8.27
2019-02-19T16:22:20.580Z,11.77
2019-02-19T16:25:25.718Z,8.50
2019-02-19T16:28:09.823Z,9.77
2019-02-19T16:30:59.013Z,10.77
2019-02-19T16:33:51.907Z,14.57
2019-02-19T16:36:42.003Z,9.10
2019-02-19T16:39:32.284Z,10.20
2019-02-19T16:42:20.695Z,15.13
2019-02-19T16:45:06.324Z,13.67
2019-02-19T16:47:55.286Z,9.57
2019-02-19T16:50:36.294Z,8.97
2019-02-19T16:53:28.795Z,14.60
2019-02-19T16:56:21.544Z,11.47
2019-02-19T16:59:18.021Z,12.50
2019-02-19T17:02:05.568Z,15.43
2019-02-19T17:04:58.150Z,13.77
2019-02-19T17:07:37.227Z,11.90
2019-02-19T17:10:31.005Z,14.97
2019-02-19T17:13:07.715Z,15.80
2019-02-19T17:15:57.754Z,16.23
2019-02-19T17:18:48.037Z,12.40
2019-02-19T17:21:38.897Z,10.13
2019-02-19T17:24:27.769Z,11.13
2019-02-19T17:27:16.263Z,11.27
2019-02-19T17:30:05.180Z,10.13
2019-02-19T17:32:54.396Z,12.00
2019-02-19T17:35:40.551Z,12.93
2019-02-19T17:38:33.340Z,17.23
2019-02-19T17:41:10.465Z,9.93
2019-02-19T17:43:46.267Z,11.73
2019-02-19T17:46:52.315Z,9.43
2019-02-19T17:49:46.504Z,14.50
2019-02-19T17:52:48.762Z,9.30
2019-02-19T17:55:45.018Z,10.53
2019-02-19T17:58:34.731Z,19.57
2019-02-19T18:01:38.077Z,15.03
2019-02-19T18:04:20.512Z,11.17
2019-02-19T18:07:19.019Z,15.00
2019-02-19T18:10:09.905Z,16.37
2019-02-19T18:12:55.763Z,13.93
2019-02-19T18:15:48.730Z,10.33
2019-02-19T18:18:53.859Z,11.60
2019-02-19T18:21:26.216Z,12.20
2019-02-19T18:23:57.017Z,12.43
2019-02-19T18:26:28.806Z,10.93
2019-02-19T18:29:03.858Z,14.80
2019-02-19T18:31:35.262Z,13.90
2019-02-19T18:34:06.861Z,10.90
2019-02-19T18:36:38.407Z,14.50
2019-02-19T18:39:09.850Z,11.90
2019-02-19T18:41:41.119Z,11.13
2019-02-19T18:44:12.409Z,11.03
2019-02-19T18:46:43.646Z,14.53
2019-02-19T18:49:14.786Z,11.13
2019-02-19T18:51:46.007Z,11.20
2019-02-19T18:54:17.034Z,11.00
2019-02-19T18:56:48.273Z,12.30
2019-02-19T18:59:19.751Z,19.43
2019-02-19T19:01:51.516Z,15.00
2019-02-19T19:04:22.671Z,17.87
2019-02-19T19:06:53.945Z,11.03
2019-02-19T19:09:25.891Z,16.03
2019-02-19T19:11:56.986Z,11.47
2019-02-19T19:14:28.346Z,9.30
2019-02-19T19:16:59.732Z,14.43
2019-02-19T19:19:30.922Z,12.27
2019-02-19T19:22:01.758Z,10.00
2019-02-19T19:24:32.778Z,11.40
2019-02-19T19:27:03.643Z,12.93
2019-02-19T19:29:35.548Z,15.13
2019-02-19T19:32:09.595Z,13.43
2019-02-19T19:34:40.819Z,14.87
2019-02-19T19:37:12.071Z,19.00
2019-02-19T19:39:43.446Z,15.80
2019-02-19T19:42:14.768Z,12.40
2019-02-19T19:44:46.042Z,15.50
2019-02-19T19:47:16.674Z,17.97
2019-02-19T19:49:47.955Z,15.03
2019-02-19T19:52:19.065Z,13.10
2019-02-19T19:54:51.199Z,15.20
2019-02-19T19:57:23.990Z,15.77
2019-02-19T19:59:56.108Z,10.33
2019-02-19T20:02:28.921Z,14.28
2019-02-19T20:05:01.891Z,17.93
2019-02-19T20:07:34.752Z,15.43
2019-02-19T20:10:08.080Z,20.52
2019-02-19T20:12:40.110Z,12.07
2019-02-19T20:15:12.324Z,14.60
2019-02-19T20:17:45.162Z,12.83
2019-02-19T20:20:17.357Z,11.50
2019-02-19T20:22:49.760Z,12.60
2019-02-19T20:25:22.005Z,16.93
2019-02-19T20:27:53.733Z,15.40
2019-02-19T20:30:26.354Z,12.23
2019-02-19T20:32:57.231Z,13.77
2019-02-19T20:35:29.647Z,14.23
2019-02-19T20:38:00.792Z,13.50
2019-02-19T20:40:32.025Z,10.50
2019-02-19T20:43:03.518Z,17.80
2019-02-19T20:45:35.334Z,18.43
2019-02-19T20:48:07.441Z,13.40
2019-02-19T20:50:40.229Z,10.80
2019-02-19T20:53:11.290Z,12.30
2019-02-19T20:55:46.676Z,12.70
2019-02-19T20:58:18.751Z,11.27
2019-02-19T21:00:51.015Z,12.30
2019-02-19T21:03:23.367Z,10.77
2019-02-19T21:05:58.816Z,11.20
2019-02-19T21:08:30.921Z,11.50
2019-02-19T21:11:03.357Z,10.37
2019-02-19T21:13:34.615Z,8.80
2019-02-19T21:16:10.259Z,11.80
2019-02-19T21:18:43.615Z,14.00
2019-02-19T21:21:16.062Z,12.80
2019-02-19T21:23:48.059Z,12.40
2019-02-19T21:26:21.359Z,14.43
2019-02-19T21:28:55.906Z,7.80
2019-02-19T21:31:46.292Z,9.20
2019-02-19T21:34:18.706Z,10.17
2019-02-19T21:36:49.790Z,11.03
2019-02-19T21:39:21.909Z,19.33
2019-02-19T21:41:55.155Z,13.60
2019-02-19T21:44:26.373Z,8.30
2019-02-19T21:46:57.275Z,11.17
2019-02-19T21:49:28.594Z,10.07
2019-02-19T21:52:00.957Z,12.50
2019-02-19T21:54:38.823Z,12.67
2019-02-19T21:57:10.411Z,12.50
2019-02-19T21:59:41.541Z,19.23
2019-02-19T22:02:16.428Z,10.80
2019-02-19T22:04:46.811Z,10.67
2019-02-19T22:07:18.462Z,10.37
2019-02-19T22:09:49.682Z,10.20
2019-02-19T22:12:21.706Z,9.90
2019-02-19T22:14:53.019Z,15.00
2019-02-19T22:17:24.459Z,10.23
2019-02-19T22:20:04.175Z,11.10
2019-02-19T22:22:37.412Z,10.90
2019-02-19T22:25:08.817Z,9.70
2019-02-19T22:27:40.229Z,9.03
2019-02-19T22:30:11.486Z,14.57
2019-02-19T22:36:10.366Z,8.93
2019-02-19T22:38:41.573Z,17.70
2019-02-19T22:41:12.684Z,10.30
2019-02-19T22:43:44.150Z,11.27
2019-02-19T22:46:15.336Z,10.70
2019-02-19T22:48:47.512Z,13.87
2019-02-19T22:51:18.832Z,8.30
2019-02-19T22:54:05.253Z,10.43
2019-02-19T22:56:42.002Z,9.90
2019-02-19T22:59:13.099Z,11.13
2019-02-19T23:02:03.739Z,9.50
2019-02-19T23:04:34.130Z,10.43
2019-02-19T23:07:05.012Z,11.73
2019-02-19T23:09:36.298Z,10.70
2019-02-19T23:12:07.813Z,13.37
2019-02-19T23:14:40.628Z,13.10
2019-02-19T23:17:14.596Z,19.60
2019-02-19T23:19:45.647Z,16.23
2019-02-19T23:22:21.708Z,12.03
2019-02-19T23:24:50.433Z,16.53
2019-02-19T23:27:22.534Z,15.30
2019-02-19T23:29:53.592Z,15.97
2019-02-19T23:32:24.734Z,16.57
2019-02-19T23:35:16.152Z,24.37
2019-02-19T23:37:47.219Z,11.97
2019-02-19T23:40:18.382Z,15.30
2019-02-19T23:42:49.486Z,16.50
2019-02-19T23:45:20.451Z,16.73
2019-02-19T23:47:51.551Z,22.57
2019-02-19T23:50:22.712Z,13.60
2019-02-19T23:56:39.452Z,16.50
2019-02-19T23:59:10.541Z,15.47
